sensor_id;sensor_type;location;lat;lon;timestamp;pressure;altitude;pressure_sealevel;temperature;humidity
80393;BME280;69719;45.544;10.218;2023-05-19T00:01:49;100164.81;;;17.36;62.83
80393;BME280;69719;45.544;10.218;2023-05-19T00:04:16;100165.09;;;17.40;62.58
80393;BME280;69719;45.544;10.218;2023-05-19T00:06:42;100175.22;;;17.26;63.86
80393;BME280;69719;45.544;10.218;2023-05-19T00:09:10;100173.78;;;17.40;63.22
80393;BME280;69719;45.544;10.218;2023-05-19T00:11:38;100171.97;;;17.46;64.80
80393;BME280;69719;45.544;10.218;2023-05-19T00:14:05;100169.44;;;17.24;64.92
80393;BME280;69719;45.544;10.218;2023-05-19T00:16:32;100164.44;;;17.23;65.27
80393;BME280;69719;45.544;10.218;2023-05-19T00:18:59;100161.34;;;17.31;66.44
80393;BME280;69719;45.544;10.218;2023-05-19T00:21:25;100173.03;;;17.45;64.62
80393;BME280;69719;45.544;10.218;2023-05-19T00:23:51;100166.25;;;17.22;64.72
80393;BME280;69719;45.544;10.218;2023-05-19T00:26:17;100159.97;;;17.23;65.18
80393;BME280;69719;45.544;10.218;2023-05-19T00:28:42;100166.59;;;17.31;65.22
80393;BME280;69719;45.544;10.218;2023-05-19T00:31:08;100169.56;;;17.39;64.84
80393;BME280;69719;45.544;10.218;2023-05-19T00:33:34;100160.19;;;17.22;64.76
80393;BME280;69719;45.544;10.218;2023-05-19T00:36:03;100159.25;;;17.33;63.94
80393;BME280;69719;45.544;10.218;2023-05-19T00:38:32;100163.56;;;17.12;65.87
80393;BME280;69719;45.544;10.218;2023-05-19T00:40:59;100161.81;;;16.96;66.37
80393;BME280;69719;45.544;10.218;2023-05-19T00:43:25;100162.69;;;17.07;66.71
80393;BME280;69719;45.544;10.218;2023-05-19T00:45:50;100166.13;;;17.07;65.96
80393;BME280;69719;45.544;10.218;2023-05-19T00:48:16;100155.63;;;17.07;66.45
80393;BME280;69719;45.544;10.218;2023-05-19T00:50:42;100154.19;;;17.21;65.85
80393;BME280;69719;45.544;10.218;2023-05-19T00:53:08;100158.88;;;17.19;65.25
80393;BME280;69719;45.544;10.218;2023-05-19T00:55:36;100152.97;;;17.07;66.55
80393;BME280;69719;45.544;10.218;2023-05-19T00:58:03;100152.44;;;17.05;66.78
80393;BME280;69719;45.544;10.218;2023-05-19T01:00:29;100151.22;;;17.18;66.16
80393;BME280;69719;45.544;10.218;2023-05-19T01:02:55;100146.84;;;17.28;66.16
80393;BME280;69719;45.544;10.218;2023-05-19T01:05:21;100154.59;;;17.08;66.71
80393;BME280;69719;45.544;10.218;2023-05-19T01:07:47;100150.44;;;17.17;65.53
80393;BME280;69719;45.544;10.218;2023-05-19T01:10:20;100149.34;;;17.13;66.77
80393;BME280;69719;45.544;10.218;2023-05-19T01:12:46;100150.56;;;17.01;66.70
80393;BME280;69719;45.544;10.218;2023-05-19T01:15:12;100146.78;;;17.18;66.39
80393;BME280;69719;45.544;10.218;2023-05-19T01:20:54;100138.41;;;17.26;65.38
80393;BME280;69719;45.544;10.218;2023-05-19T01:23:27;100143.66;;;17.21;65.52
80393;BME280;69719;45.544;10.218;2023-05-19T01:31:23;100133.38;;;17.20;65.80
80393;BME280;69719;45.544;10.218;2023-05-19T01:33:52;100139.09;;;17.12;66.20
80393;BME280;69719;45.544;10.218;2023-05-19T01:36:19;100138.34;;;17.16;66.23
80393;BME280;69719;45.544;10.218;2023-05-19T01:38:49;100139.84;;;17.07;66.93
80393;BME280;69719;45.544;10.218;2023-05-19T01:41:15;100136.84;;;17.25;65.85
80393;BME280;69719;45.544;10.218;2023-05-19T01:43:43;100138.34;;;17.16;65.83
80393;BME280;69719;45.544;10.218;2023-05-19T01:46:08;100144.69;;;17.20;65.70
80393;BME280;69719;45.544;10.218;2023-05-19T01:48:34;100140.50;;;17.24;66.24
80393;BME280;69719;45.544;10.218;2023-05-19T01:51:00;100144.81;;;17.35;65.63
80393;BME280;69719;45.544;10.218;2023-05-19T01:53:26;100143.13;;;17.19;66.28
80393;BME280;69719;45.544;10.218;2023-05-19T01:55:53;100142.72;;;17.06;66.82
80393;BME280;69719;45.544;10.218;2023-05-19T01:58:37;100139.44;;;17.20;65.86
80393;BME280;69719;45.544;10.218;2023-05-19T02:06:40;100143.94;;;16.93;66.25
80393;BME280;69719;45.544;10.218;2023-05-19T02:09:38;100141.84;;;16.95;67.15
80393;BME280;69719;45.544;10.218;2023-05-19T02:12:12;100138.50;;;17.05;67.69
80393;BME280;69719;45.544;10.218;2023-05-19T02:17:32;100141.38;;;17.03;66.23
80393;BME280;69719;45.544;10.218;2023-05-19T02:20:00;100140.31;;;16.99;66.36
80393;BME280;69719;45.544;10.218;2023-05-19T02:22:26;100134.91;;;16.84;67.94
80393;BME280;69719;45.544;10.218;2023-05-19T02:24:51;100138.47;;;16.73;68.54
80393;BME280;69719;45.544;10.218;2023-05-19T02:27:17;100139.34;;;16.83;67.77
80393;BME280;69719;45.544;10.218;2023-05-19T02:29:43;100138.81;;;16.81;68.73
80393;BME280;69719;45.544;10.218;2023-05-19T02:32:09;100132.28;;;16.84;68.13
80393;BME280;69719;45.544;10.218;2023-05-19T02:34:35;100139.69;;;16.87;68.17
80393;BME280;69719;45.544;10.218;2023-05-19T02:37:00;100139.88;;;16.80;68.40
80393;BME280;69719;45.544;10.218;2023-05-19T02:39:26;100135.00;;;16.94;68.28
80393;BME280;69719;45.544;10.218;2023-05-19T02:41:53;100133.44;;;16.98;67.96
80393;BME280;69719;45.544;10.218;2023-05-19T02:44:18;100134.50;;;16.97;68.27
80393;BME280;69719;45.544;10.218;2023-05-19T02:46:44;100125.56;;;16.98;68.05
80393;BME280;69719;45.544;10.218;2023-05-19T02:49:09;100132.28;;;16.84;69.39
80393;BME280;69719;45.544;10.218;2023-05-19T02:51:35;100126.41;;;17.04;67.62
80393;BME280;69719;45.544;10.218;2023-05-19T02:54:00;100122.38;;;16.96;68.10
80393;BME280;69719;45.544;10.218;2023-05-19T02:56:26;100130.03;;;16.98;68.73
80393;BME280;69719;45.544;10.218;2023-05-19T02:58:52;100134.50;;;16.97;69.52
80393;BME280;69719;45.544;10.218;2023-05-19T03:01:17;100130.72;;;16.88;70.02
80393;BME280;69719;45.544;10.218;2023-05-19T03:03:45;100130.19;;;16.86;69.81
80393;BME280;69719;45.544;10.218;2023-05-19T03:06:11;100123.69;;;16.67;70.50
80393;BME280;69719;45.544;10.218;2023-05-19T03:08:37;100117.28;;;16.58;70.60
80393;BME280;69719;45.544;10.218;2023-05-19T03:11:05;100125.06;;;16.74;70.07
80393;BME280;69719;45.544;10.218;2023-05-19T03:13:30;100123.97;;;16.97;70.20
80393;BME280;69719;45.544;10.218;2023-05-19T03:15:56;100127.06;;;16.89;70.65
80393;BME280;69719;45.544;10.218;2023-05-19T03:18:24;100122.34;;;16.91;71.29
80393;BME280;69719;45.544;10.218;2023-05-19T03:20:49;100118.19;;;16.95;70.77
80393;BME280;69719;45.544;10.218;2023-05-19T03:23:15;100120.69;;;16.80;70.94
80393;BME280;69719;45.544;10.218;2023-05-19T03:25:40;100118.69;;;16.65;71.63
80393;BME280;69719;45.544;10.218;2023-05-19T03:28:06;100119.06;;;16.79;71.50
80393;BME280;69719;45.544;10.218;2023-05-19T03:30:31;100115.88;;;16.72;71.63
80393;BME280;69719;45.544;10.218;2023-05-19T03:32:57;100115.66;;;16.52;72.12
80393;BME280;69719;45.544;10.218;2023-05-19T03:35:22;100118.84;;;16.54;72.15
80393;BME280;69719;45.544;10.218;2023-05-19T03:37:47;100121.69;;;16.74;71.38
80393;BME280;69719;45.544;10.218;2023-05-19T03:40:13;100127.97;;;16.73;70.97
80393;BME280;69719;45.544;10.218;2023-05-19T03:42:39;100138.56;;;16.83;70.25
80393;BME280;69719;45.544;10.218;2023-05-19T03:45:05;100133.88;;;16.85;70.10
80393;BME280;69719;45.544;10.218;2023-05-19T03:47:31;100132.84;;;16.59;71.42
80393;BME280;69719;45.544;10.218;2023-05-19T03:49:56;100128.91;;;16.62;71.21
80393;BME280;69719;45.544;10.218;2023-05-19T03:52:22;100129.78;;;16.72;70.62
80393;BME280;69719;45.544;10.218;2023-05-19T03:54:47;100127.06;;;16.41;71.16
80393;BME280;69719;45.544;10.218;2023-05-19T03:57:13;100133.19;;;16.46;71.54
80393;BME280;69719;45.544;10.218;2023-05-19T03:59:39;100133.38;;;16.40;71.84
80393;BME280;69719;45.544;10.218;2023-05-19T04:02:05;100142.22;;;16.55;70.92
80393;BME280;69719;45.544;10.218;2023-05-19T04:04:31;100145.09;;;16.54;71.05
80393;BME280;69719;45.544;10.218;2023-05-19T04:06:57;100140.47;;;16.61;70.26
80393;BME280;69719;45.544;10.218;2023-05-19T04:09:22;100139.81;;;16.75;69.87
80393;BME280;69719;45.544;10.218;2023-05-19T04:11:50;100143.13;;;16.66;70.43
80393;BME280;69719;45.544;10.218;2023-05-19T04:14:16;100139.91;;;16.59;70.15
80393;BME280;69719;45.544;10.218;2023-05-19T04:16:41;100143.44;;;16.69;70.29
80393;BME280;69719;45.544;10.218;2023-05-19T04:19:07;100148.38;;;16.66;70.12
80393;BME280;69719;45.544;10.218;2023-05-19T04:21:32;100143.53;;;16.53;70.98
80393;BME280;69719;45.544;10.218;2023-05-19T04:23:58;100149.88;;;16.57;70.23
80393;BME280;69719;45.544;10.218;2023-05-19T04:26:25;100150.34;;;16.54;70.55
80393;BME280;69719;45.544;10.218;2023-05-19T04:28:51;100156.22;;;16.61;70.32
80393;BME280;69719;45.544;10.218;2023-05-19T04:31:18;100151.44;;;16.58;70.21
80393;BME280;69719;45.544;10.218;2023-05-19T04:33:45;100149.59;;;16.37;70.52
80393;BME280;69719;45.544;10.218;2023-05-19T04:36:12;100154.41;;;16.45;70.47
80393;BME280;69719;45.544;10.218;2023-05-19T04:38:38;100159.13;;;16.43;70.47
80393;BME280;69719;45.544;10.218;2023-05-19T04:41:07;100161.03;;;16.47;70.20
80393;BME280;69719;45.544;10.218;2023-05-19T04:43:36;100159.34;;;16.58;69.91
80393;BME280;69719;45.544;10.218;2023-05-19T04:46:06;100159.19;;;16.69;69.55
80393;BME280;69719;45.544;10.218;2023-05-19T04:48:32;100164.94;;;16.66;69.41
80393;BME280;69719;45.544;10.218;2023-05-19T04:50:58;100168.59;;;16.44;70.68
80393;BME280;69719;45.544;10.218;2023-05-19T04:53:27;100171.88;;;16.51;70.26
80393;BME280;69719;45.544;10.218;2023-05-19T04:55:52;100170.50;;;16.70;69.51
80393;BME280;69719;45.544;10.218;2023-05-19T04:58:18;100172.78;;;16.61;69.57
80393;BME280;69719;45.544;10.218;2023-05-19T05:00:44;100177.53;;;16.64;69.94
80393;BME280;69719;45.544;10.218;2023-05-19T05:03:09;100174.34;;;16.62;68.77
80393;BME280;69719;45.544;10.218;2023-05-19T05:05:36;100171.91;;;16.56;69.55
80393;BME280;69719;45.544;10.218;2023-05-19T05:08:02;100174.16;;;16.69;69.39
80393;BME280;69719;45.544;10.218;2023-05-19T05:10:28;100180.88;;;16.60;69.49
80393;BME280;69719;45.544;10.218;2023-05-19T05:12:53;100180.16;;;16.64;69.61
80393;BME280;69719;45.544;10.218;2023-05-19T05:15:19;100180.50;;;16.73;69.33
80393;BME280;69719;45.544;10.218;2023-05-19T05:17:45;100181.31;;;16.73;68.46
80393;BME280;69719;45.544;10.218;2023-05-19T05:20:11;100184.94;;;16.67;68.61
80393;BME280;69719;45.544;10.218;2023-05-19T05:22:37;100186.16;;;16.60;68.84
80393;BME280;69719;45.544;10.218;2023-05-19T05:25:03;100178.16;;;16.50;68.87
80393;BME280;69719;45.544;10.218;2023-05-19T05:27:30;100179.06;;;16.60;69.09
80393;BME280;69719;45.544;10.218;2023-05-19T05:29:55;100179.88;;;16.61;69.24
80393;BME280;69719;45.544;10.218;2023-05-19T05:32:21;100187.38;;;16.74;68.53
80393;BME280;69719;45.544;10.218;2023-05-19T05:34:47;100178.84;;;16.88;68.24
80393;BME280;69719;45.544;10.218;2023-05-19T05:37:12;100184.69;;;16.95;67.87
80393;BME280;69719;45.544;10.218;2023-05-19T05:39:38;100179.38;;;16.90;67.99
80393;BME280;69719;45.544;10.218;2023-05-19T05:42:03;100187.34;;;16.95;67.26
80393;BME280;69719;45.544;10.218;2023-05-19T05:44:29;100183.03;;;16.89;67.69
80393;BME280;69719;45.544;10.218;2023-05-19T05:46:55;100176.16;;;16.83;68.14
80393;BME280;69719;45.544;10.218;2023-05-19T05:49:20;100182.31;;;16.94;67.94
80393;BME280;69719;45.544;10.218;2023-05-19T05:51:46;100191.34;;;17.03;67.59
80393;BME280;69719;45.544;10.218;2023-05-19T05:54:12;100189.78;;;17.07;67.28
80393;BME280;69719;45.544;10.218;2023-05-19T05:56:38;100186.00;;;16.98;67.34
80393;BME280;69719;45.544;10.218;2023-05-19T05:59:05;100191.81;;;17.00;68.52
80393;BME280;69719;45.544;10.218;2023-05-19T06:01:31;100197.75;;;17.17;68.06
80393;BME280;69719;45.544;10.218;2023-05-19T06:03:56;100190.03;;;17.06;67.69
80393;BME280;69719;45.544;10.218;2023-05-19T06:06:22;100196.59;;;17.03;68.40
80393;BME280;69719;45.544;10.218;2023-05-19T06:08:47;100203.94;;;17.01;68.36
80393;BME280;69719;45.544;10.218;2023-05-19T06:11:13;100202.31;;;16.95;68.62
80393;BME280;69719;45.544;10.218;2023-05-19T06:13:38;100203.34;;;16.94;69.10
80393;BME280;69719;45.544;10.218;2023-05-19T06:16:07;100199.75;;;17.05;69.03
80393;BME280;69719;45.544;10.218;2023-05-19T06:18:32;100203.00;;;17.12;68.31
80393;BME280;69719;45.544;10.218;2023-05-19T06:20:58;100202.03;;;17.23;68.40
80393;BME280;69719;45.544;10.218;2023-05-19T06:23:23;100203.94;;;17.28;67.11
80393;BME280;69719;45.544;10.218;2023-05-19T06:25:51;100205.72;;;17.22;67.32
80393;BME280;69719;45.544;10.218;2023-05-19T06:28:16;100212.38;;;17.30;67.19
80393;BME280;69719;45.544;10.218;2023-05-19T06:30:42;100205.31;;;17.35;66.15
80393;BME280;69719;45.544;10.218;2023-05-19T06:33:07;100193.22;;;17.39;66.20
80393;BME280;69719;45.544;10.218;2023-05-19T06:35:33;100210.25;;;17.58;65.91
80393;BME280;69719;45.544;10.218;2023-05-19T06:37:58;100211.59;;;17.34;65.91
80393;BME280;69719;45.544;10.218;2023-05-19T06:40:24;100211.44;;;17.46;66.25
80393;BME280;69719;45.544;10.218;2023-05-19T06:42:49;100205.84;;;17.64;60.35
80393;BME280;69719;45.544;10.218;2023-05-19T06:45:15;100208.16;;;17.60;61.44
80393;BME280;69719;45.544;10.218;2023-05-19T06:47:40;100209.72;;;17.56;58.52
80393;BME280;69719;45.544;10.218;2023-05-19T06:50:08;100207.94;;;17.62;57.05
80393;BME280;69719;45.544;10.218;2023-05-19T06:52:34;100213.47;;;17.65;56.85
80393;BME280;69719;45.544;10.218;2023-05-19T06:54:59;100210.31;;;17.68;56.92
80393;BME280;69719;45.544;10.218;2023-05-19T06:57:25;100219.84;;;17.75;57.26
80393;BME280;69719;45.544;10.218;2023-05-19T06:59:50;100215.41;;;17.80;57.79
80393;BME280;69719;45.544;10.218;2023-05-19T07:02:16;100216.75;;;17.83;57.68
80393;BME280;69719;45.544;10.218;2023-05-19T07:04:41;100212.78;;;17.80;58.27
80393;BME280;69719;45.544;10.218;2023-05-19T07:07:07;100218.63;;;17.87;58.16
80393;BME280;69719;45.544;10.218;2023-05-19T07:09:33;100225.34;;;17.73;59.11
80393;BME280;69719;45.544;10.218;2023-05-19T07:11:58;100225.34;;;17.73;58.96
80393;BME280;69719;45.544;10.218;2023-05-19T07:14:24;100226.09;;;17.63;60.07
80393;BME280;69719;45.544;10.218;2023-05-19T07:16:49;100224.03;;;17.70;60.80
80393;BME280;69719;45.544;10.218;2023-05-19T07:19:15;100224.25;;;17.64;60.52
80393;BME280;69719;45.544;10.218;2023-05-19T07:21:40;100225.53;;;17.61;61.13
80393;BME280;69719;45.544;10.218;2023-05-19T07:24:06;100225.03;;;17.64;61.49
80393;BME280;69719;45.544;10.218;2023-05-19T07:26:35;100225.59;;;17.71;61.95
80393;BME280;69719;45.544;10.218;2023-05-19T07:29:00;100236.13;;;17.71;61.34
80393;BME280;69719;45.544;10.218;2023-05-19T07:31:29;100226.91;;;17.69;62.58
80393;BME280;69719;45.544;10.218;2023-05-19T07:33:55;100230.34;;;17.69;63.15
80393;BME280;69719;45.544;10.218;2023-05-19T07:36:20;100224.25;;;17.64;62.50
80393;BME280;69719;45.544;10.218;2023-05-19T07:38:46;100226.09;;;17.68;63.21
80393;BME280;69719;45.544;10.218;2023-05-19T07:41:12;100237.16;;;17.65;63.03
80393;BME280;69719;45.544;10.218;2023-05-19T07:43:37;100228.03;;;17.78;61.80
80393;BME280;69719;45.544;10.218;2023-05-19T07:46:04;100229.31;;;17.76;61.60
80393;BME280;69719;45.544;10.218;2023-05-19T07:48:30;100218.31;;;17.79;61.97
80393;BME280;69719;45.544;10.218;2023-05-19T07:50:58;100234.09;;;17.79;61.63
80393;BME280;69719;45.544;10.218;2023-05-19T07:53:24;100227.00;;;17.79;61.76
80393;BME280;69719;45.544;10.218;2023-05-19T07:55:50;100228.78;;;17.73;64.06
80393;BME280;69719;45.544;10.218;2023-05-19T07:58:17;100225.13;;;17.75;62.07
80393;BME280;69719;45.544;10.218;2023-05-19T08:00:44;100231.63;;;18.04;59.79
80393;BME280;69719;45.544;10.218;2023-05-19T08:03:10;100233.28;;;18.15;58.70
80393;BME280;69719;45.544;10.218;2023-05-19T08:05:36;100221.19;;;18.19;59.04
80393;BME280;69719;45.544;10.218;2023-05-19T08:08:02;100226.94;;;18.16;58.00
80393;BME280;69719;45.544;10.218;2023-05-19T08:10:28;100227.53;;;17.81;60.03
80393;BME280;69719;45.544;10.218;2023-05-19T08:12:53;100213.63;;;17.91;59.91
80393;BME280;69719;45.544;10.218;2023-05-19T08:15:19;100219.16;;;17.94;58.22
80393;BME280;69719;45.544;10.218;2023-05-19T08:17:44;100226.47;;;17.82;58.61
80393;BME280;69719;45.544;10.218;2023-05-19T08:20:10;100216.81;;;17.93;58.46
80393;BME280;69719;45.544;10.218;2023-05-19T08:22:37;100225.75;;;17.92;58.58
80393;BME280;69719;45.544;10.218;2023-05-19T08:25:03;100219.97;;;17.95;58.11
80393;BME280;69719;45.544;10.218;2023-05-19T08:27:29;100226.78;;;17.91;57.98
80393;BME280;69719;45.544;10.218;2023-05-19T08:29:55;100222.56;;;17.85;57.91
80393;BME280;69719;45.544;10.218;2023-05-19T08:32:21;100219.25;;;17.67;58.28
80393;BME280;69719;45.544;10.218;2023-05-19T08:34:47;100226.41;;;17.72;58.58
80393;BME280;69719;45.544;10.218;2023-05-19T08:37:12;100229.91;;;17.83;57.90
80393;BME280;69719;45.544;10.218;2023-05-19T08:39:40;100230.94;;;17.82;57.77
80393;BME280;69719;45.544;10.218;2023-05-19T08:42:06;100227.84;;;17.90;57.67
80393;BME280;69719;45.544;10.218;2023-05-19T08:44:36;100235.31;;;18.08;56.93
80393;BME280;69719;45.544;10.218;2023-05-19T08:47:04;100223.69;;;17.99;58.02
80393;BME280;69719;45.544;10.218;2023-05-19T08:49:32;100226.78;;;17.91;57.50
80393;BME280;69719;45.544;10.218;2023-05-19T08:52:11;100220.56;;;18.02;57.88
80393;BME280;69719;45.544;10.218;2023-05-19T08:54:50;100221.56;;;17.96;57.76
80393;BME280;69719;45.544;10.218;2023-05-19T08:57:17;100224.75;;;17.98;57.34
80393;BME280;69719;45.544;10.218;2023-05-19T08:59:43;100226.09;;;18.00;57.29
80393;BME280;69719;45.544;10.218;2023-05-19T09:02:10;100219.75;;;18.01;57.40
80393;BME280;69719;45.544;10.218;2023-05-19T09:04:38;100223.22;;;18.07;57.62
80393;BME280;69719;45.544;10.218;2023-05-19T09:07:06;100230.06;;;18.08;56.69
80393;BME280;69719;45.544;10.218;2023-05-19T09:09:33;100229.00;;;18.04;56.59
80393;BME280;69719;45.544;10.218;2023-05-19T09:11:59;100233.72;;;18.02;56.54
80393;BME280;69719;45.544;10.218;2023-05-19T09:14:25;100231.13;;;18.07;56.65
80393;BME280;69719;45.544;10.218;2023-05-19T09:16:51;100235.88;;;18.10;56.78
80393;BME280;69719;45.544;10.218;2023-05-19T09:19:17;100232.41;;;18.04;56.35
80393;BME280;69719;45.544;10.218;2023-05-19T09:21:42;100234.00;;;18.05;56.28
80393;BME280;69719;45.544;10.218;2023-05-19T09:24:10;100235.91;;;18.15;55.78
80393;BME280;69719;45.544;10.218;2023-05-19T09:26:40;100231.09;;;18.02;55.98
80393;BME280;69719;45.544;10.218;2023-05-19T09:29:12;100231.63;;;18.04;55.75
80393;BME280;69719;45.544;10.218;2023-05-19T09:31:38;100224.31;;;18.16;56.07
80393;BME280;69719;45.544;10.218;2023-05-19T09:34:11;100231.22;;;18.22;55.61
80393;BME280;69719;45.544;10.218;2023-05-19T09:36:39;100225.63;;;18.18;56.03
80393;BME280;69719;45.544;10.218;2023-05-19T09:39:12;100221.13;;;18.09;55.85
80393;BME280;69719;45.544;10.218;2023-05-19T09:41:38;100226.53;;;18.34;55.67
80393;BME280;69719;45.544;10.218;2023-05-19T09:44:04;100228.88;;;18.30;55.61
80393;BME280;69719;45.544;10.218;2023-05-19T09:46:31;100231.34;;;18.52;55.19
80393;BME280;69719;45.544;10.218;2023-05-19T09:48:57;100223.34;;;18.32;55.27
80393;BME280;69719;45.544;10.218;2023-05-19T09:51:23;100230.41;;;18.21;56.18
80393;BME280;69719;45.544;10.218;2023-05-19T09:53:49;100226.22;;;18.25;55.71
80393;BME280;69719;45.544;10.218;2023-05-19T09:56:16;100221.22;;;18.29;55.82
80393;BME280;69719;45.544;10.218;2023-05-19T09:58:41;100227.78;;;18.26;56.48
80393;BME280;69719;45.544;10.218;2023-05-19T10:01:07;100219.66;;;18.33;56.81
80393;BME280;69719;45.544;10.218;2023-05-19T10:03:33;100222.31;;;18.38;56.87
80393;BME280;69719;45.544;10.218;2023-05-19T10:06:05;100224.16;;;18.37;58.01
80393;BME280;69719;45.544;10.218;2023-05-19T10:08:35;100219.88;;;18.21;57.93
80393;BME280;69719;45.544;10.218;2023-05-19T10:11:02;100220.72;;;18.32;58.72
80393;BME280;69719;45.544;10.218;2023-05-19T10:13:28;100218.97;;;18.48;57.87
80393;BME280;69719;45.544;10.218;2023-05-19T10:15:55;100215.00;;;18.45;57.49
80393;BME280;69719;45.544;10.218;2023-05-19T10:18:21;100218.44;;;18.51;57.23
80393;BME280;69719;45.544;10.218;2023-05-19T10:20:49;100202.56;;;18.40;57.47
80393;BME280;69719;45.544;10.218;2023-05-19T10:23:14;100197.38;;;18.51;57.21
80393;BME280;69719;45.544;10.218;2023-05-19T10:25:41;100205.84;;;18.68;56.35
80393;BME280;69719;45.544;10.218;2023-05-19T10:28:13;100199.25;;;18.65;55.49
80393;BME280;69719;45.544;10.218;2023-05-19T10:30:43;100193.00;;;18.91;55.63
80393;BME280;69719;45.544;10.218;2023-05-19T10:33:12;100197.75;;;18.94;54.38
80393;BME280;69719;45.544;10.218;2023-05-19T10:44:10;100201.97;;;18.95;53.09
80393;BME280;69719;45.544;10.218;2023-05-19T10:46:39;100203.53;;;18.81;53.98
80393;BME280;69719;45.544;10.218;2023-05-19T10:49:06;100208.25;;;18.84;53.93
80393;BME280;69719;45.544;10.218;2023-05-19T10:51:32;100196.63;;;18.70;53.88
80393;BME280;69719;45.544;10.218;2023-05-19T10:54:02;100197.47;;;18.81;53.56
80393;BME280;69719;45.544;10.218;2023-05-19T10:56:30;100196.13;;;18.78;53.79
80393;BME280;69719;45.544;10.218;2023-05-19T10:58:58;100194.28;;;18.74;53.71
80393;BME280;69719;45.544;10.218;2023-05-19T11:01:34;100197.22;;;18.87;53.59
80393;BME280;69719;45.544;10.218;2023-05-19T11:04:18;100202.19;;;18.79;53.69
80393;BME280;69719;45.544;10.218;2023-05-19T11:06:44;100195.03;;;18.69;55.24
80393;BME280;69719;45.544;10.218;2023-05-19T11:09:18;100180.28;;;18.58;55.23
80393;BME280;69719;45.544;10.218;2023-05-19T11:11:51;100182.38;;;18.61;55.94
80393;BME280;69719;45.544;10.218;2023-05-19T11:14:19;100180.59;;;18.87;56.23
80393;BME280;69719;45.544;10.218;2023-05-19T11:16:46;100185.38;;;19.10;56.39
80393;BME280;69719;45.544;10.218;2023-05-19T11:19:28;100184.59;;;19.09;55.02
80393;BME280;69719;45.544;10.218;2023-05-19T11:21:54;100185.09;;;18.96;54.35
80393;BME280;69719;45.544;10.218;2023-05-19T11:24:44;100178.78;;;19.12;53.84
80393;BME280;69719;45.544;10.218;2023-05-19T11:29:54;100168.81;;;19.35;52.18
80393;BME280;69719;45.544;10.218;2023-05-19T11:32:21;100176.94;;;19.23;51.51
80393;BME280;69719;45.544;10.218;2023-05-19T11:34:50;100183.78;;;19.29;52.37
80393;BME280;69719;45.544;10.218;2023-05-19T11:37:16;100171.41;;;19.24;51.40
80393;BME280;69719;45.544;10.218;2023-05-19T11:39:44;100179.31;;;19.30;50.76
80393;BME280;69719;45.544;10.218;2023-05-19T11:42:10;100177.75;;;19.29;51.18
80393;BME280;69719;45.544;10.218;2023-05-19T11:44:36;100172.97;;;19.25;51.20
80393;BME280;69719;45.544;10.218;2023-05-19T11:47:03;100165.34;;;19.44;50.67
80393;BME280;69719;45.544;10.218;2023-05-19T11:49:29;100164.06;;;19.42;51.48
80393;BME280;69719;45.544;10.218;2023-05-19T11:51:54;100166.66;;;19.32;51.64
80393;BME280;69719;45.544;10.218;2023-05-19T11:54:20;100168.78;;;19.40;54.01
80393;BME280;69719;45.544;10.218;2023-05-19T11:56:46;100167.22;;;19.44;51.86
80393;BME280;69719;45.544;10.218;2023-05-19T11:59:11;100167.47;;;19.22;52.08
80393;BME280;69719;45.544;10.218;2023-05-19T12:01:37;100165.34;;;19.09;52.73
80393;BME280;69719;45.544;10.218;2023-05-19T12:04:08;100162.44;;;19.25;52.38
80393;BME280;69719;45.544;10.218;2023-05-19T12:06:34;100161.13;;;19.28;51.93
80393;BME280;69719;45.544;10.218;2023-05-19T12:09:01;100156.88;;;19.17;52.96
80393;BME280;69719;45.544;10.218;2023-05-19T12:11:27;100165.09;;;19.36;51.95
80393;BME280;69719;45.544;10.218;2023-05-19T12:14:00;100158.22;;;19.30;52.18
80393;BME280;69719;45.544;10.218;2023-05-19T12:16:33;100152.13;;;19.14;52.46
80393;BME280;69719;45.544;10.218;2023-05-19T12:19:05;100160.84;;;19.30;52.73
80393;BME280;69719;45.544;10.218;2023-05-19T12:21:37;100163.78;;;19.33;52.85
80393;BME280;69719;45.544;10.218;2023-05-19T12:24:03;100158.75;;;19.11;53.28
80393;BME280;69719;45.544;10.218;2023-05-19T12:26:30;100163.25;;;19.36;52.99
80393;BME280;69719;45.544;10.218;2023-05-19T12:28:57;100163.50;;;19.24;53.90
80393;BME280;69719;45.544;10.218;2023-05-19T12:31:22;100162.16;;;19.12;54.72
80393;BME280;69719;45.544;10.218;2023-05-19T12:33:48;100169.81;;;19.18;55.12
80393;BME280;69719;45.544;10.218;2023-05-19T12:36:17;100166.16;;;19.24;58.37
80393;BME280;69719;45.544;10.218;2023-05-19T12:38:43;100170.34;;;19.20;59.57
80393;BME280;69719;45.544;10.218;2023-05-19T12:41:12;100176.16;;;19.07;61.46
80393;BME280;69719;45.544;10.218;2023-05-19T12:43:39;100188.72;;;18.60;64.23
80393;BME280;69719;45.544;10.218;2023-05-19T12:46:11;100185.31;;;18.70;65.05
80393;BME280;69719;45.544;10.218;2023-05-19T12:48:44;100185.56;;;18.68;68.89
80393;BME280;69719;45.544;10.218;2023-05-19T12:51:16;100183.06;;;18.41;68.13
80393;BME280;69719;45.544;10.218;2023-05-19T12:53:42;100181.63;;;18.14;70.51
80393;BME280;69719;45.544;10.218;2023-05-19T12:56:12;100178.88;;;17.89;70.86
80393;BME280;69719;45.544;10.218;2023-05-19T12:58:41;100180.47;;;17.95;70.56
80393;BME280;69719;45.544;10.218;2023-05-19T13:01:15;100188.59;;;17.88;69.59
80393;BME280;69719;45.544;10.218;2023-05-19T13:03:40;100173.72;;;17.62;71.30
80393;BME280;69719;45.544;10.218;2023-05-19T13:06:07;100177.06;;;17.52;71.68
80393;BME280;69719;45.544;10.218;2023-05-19T13:08:34;100180.66;;;17.46;72.40